createdAt,value
2022-11-29T00:00:49.487Z,54.20
2022-11-29T00:03:16.587Z,54.20
2022-11-29T00:05:43.490Z,54.30
2022-11-29T00:08:10.275Z,54.30
2022-11-29T00:10:37.453Z,54.30
2022-11-29T00:13:05.672Z,54.30
2022-11-29T00:15:35.838Z,54.30
2022-11-29T00:18:02.607Z,54.30
2022-11-29T00:20:29.524Z,54.30
2022-11-29T00:22:56.275Z,54.30
2022-11-29T00:25:23.046Z,54.30
2022-11-29T00:27:49.863Z,54.30
2022-11-29T00:30:18.609Z,54.40
2022-11-29T00:32:45.388Z,54.40
2022-11-29T00:35:12.220Z,54.30
2022-11-29T00:37:39.067Z,54.30
2022-11-29T00:40:06.934Z,54.30
2022-11-29T00:42:33.790Z,54.30
2022-11-29T00:45:00.596Z,54.40
2022-11-29T00:47:28.881Z,54.40
2022-11-29T00:49:55.627Z,54.60
2022-11-29T00:52:22.383Z,54.50
2022-11-29T00:54:49.142Z,54.40
2022-11-29T00:57:15.954Z,54.40
2022-11-29T00:59:42.694Z,54.40
2022-11-29T01:02:09.504Z,54.50
2022-11-29T01:04:37.658Z,54.40
2022-11-29T01:07:04.421Z,54.60
2022-11-29T01:09:31.162Z,54.60
2022-11-29T01:11:57.950Z,54.50
2022-11-29T01:14:24.758Z,54.40
2022-11-29T01:16:51.508Z,54.40
2022-11-29T01:19:18.308Z,54.50
2022-11-29T01:21:46.425Z,54.50
2022-11-29T01:24:13.197Z,54.50
2022-11-29T01:26:39.988Z,54.50
2022-11-29T01:29:06.739Z,54.50
2022-11-29T01:31:34.853Z,54.50
2022-11-29T01:34:03.504Z,54.50
2022-11-29T01:36:30.656Z,54.50
2022-11-29T01:39:00.656Z,54.60
2022-11-29T01:41:29.869Z,54.60
2022-11-29T01:44:00.464Z,54.50
2022-11-29T01:46:28.700Z,54.60
2022-11-29T01:49:00.221Z,54.60
2022-11-29T01:51:28.260Z,54.60
2022-11-29T01:53:55.571Z,54.60
2022-11-29T01:56:25.022Z,54.50
2022-11-29T01:58:52.224Z,54.50
2022-11-29T02:01:19.495Z,54.50
2022-11-29T02:03:46.681Z,54.70
2022-11-29T02:06:14.472Z,55.30
2022-11-29T02:08:42.808Z,54.50
2022-11-29T02:11:32.857Z,54.50
2022-11-29T02:14:10.467Z,54.60
2022-11-29T02:16:47.714Z,54.70
2022-11-29T02:19:32.125Z,54.60
2022-11-29T02:22:05.487Z,54.60
2022-11-29T02:24:53.360Z,54.80
2022-11-29T02:27:47.049Z,54.70
2022-11-29T02:30:27.504Z,54.70
2022-11-29T02:33:16.076Z,54.80
2022-11-29T02:36:06.137Z,54.70
2022-11-29T02:38:51.984Z,54.70
2022-11-29T02:41:29.955Z,54.90
2022-11-29T02:44:26.379Z,54.90
2022-11-29T02:47:06.193Z,54.70
2022-11-29T02:49:52.035Z,54.70
2022-11-29T02:52:25.893Z,54.90
2022-11-29T02:54:58.963Z,54.80
2022-11-29T02:57:32.693Z,54.80
2022-11-29T03:00:04.222Z,54.90
2022-11-29T03:02:38.391Z,54.80
2022-11-29T03:05:16.849Z,54.80
2022-11-29T03:07:52.462Z,54.80
2022-11-29T03:10:29.447Z,54.80
2022-11-29T03:12:57.218Z,54.80
2022-11-29T03:15:29.587Z,54.80
2022-11-29T03:18:08.664Z,55.00
2022-11-29T03:20:52.040Z,54.80
2022-11-29T03:23:23.925Z,54.80
2022-11-29T03:25:57.199Z,54.80
2022-11-29T03:28:29.339Z,54.80
2022-11-29T03:31:03.871Z,54.90
2022-11-29T03:33:36.278Z,54.70
2022-11-29T03:36:11.488Z,54.80
2022-11-29T03:38:41.365Z,54.70
2022-11-29T03:41:17.829Z,54.70
2022-11-29T03:43:49.204Z,54.80
2022-11-29T03:46:25.431Z,54.80
2022-11-29T03:48:59.377Z,55.00
2022-11-29T03:51:38.604Z,55.00
2022-11-29T03:54:10.654Z,54.80
2022-11-29T03:56:39.349Z,54.80
2022-11-29T03:59:19.106Z,54.80
2022-11-29T04:02:10.250Z,54.80
2022-11-29T04:04:56.910Z,55.00
2022-11-29T04:08:00.345Z,54.80
2022-11-29T04:10:48.154Z,54.70
2022-11-29T04:13:51.558Z,54.80
2022-11-29T04:16:56.093Z,55.40
2022-11-29T04:20:10.569Z,54.80
2022-11-29T04:22:59.522Z,54.90
2022-11-29T04:25:53.939Z,55.00
2022-11-29T04:28:57.437Z,55.10
2022-11-29T04:31:37.819Z,55.10
2022-11-29T04:34:34.685Z,55.20
2022-11-29T04:37:14.036Z,55.10
2022-11-29T04:39:56.450Z,55.10
2022-11-29T04:43:17.128Z,55.10
2022-11-29T04:46:03.367Z,54.90
2022-11-29T04:48:51.015Z,55.10
2022-11-29T04:51:27.130Z,55.20
2022-11-29T04:53:59.004Z,55.30
2022-11-29T04:56:32.761Z,55.20
2022-11-29T04:59:05.890Z,55.20
2022-11-29T05:01:43.307Z,55.00
2022-11-29T05:04:16.387Z,55.00
2022-11-29T05:06:50.154Z,55.00
2022-11-29T05:09:27.491Z,55.00
2022-11-29T05:12:03.585Z,55.20
2022-11-29T05:14:50.402Z,55.20
2022-11-29T05:17:30.423Z,55.00
2022-11-29T05:20:13.030Z,55.00
2022-11-29T05:22:51.450Z,55.10
2022-11-29T05:25:33.105Z,55.10
2022-11-29T05:28:10.358Z,55.00
2022-11-29T05:30:57.064Z,55.00
2022-11-29T05:33:47.814Z,54.90
2022-11-29T05:36:24.637Z,55.00
2022-11-29T05:39:07.540Z,55.00
2022-11-29T05:41:49.191Z,55.10
2022-11-29T05:44:24.233Z,55.10
2022-11-29T05:46:55.486Z,55.20
2022-11-29T05:49:30.526Z,55.10
2022-11-29T05:52:16.374Z,55.10
2022-11-29T05:54:49.186Z,55.10
2022-11-29T05:57:26.870Z,54.90
2022-11-29T05:59:55.697Z,55.10
2022-11-29T06:02:35.852Z,55.20
2022-11-29T06:05:12.922Z,55.00
2022-11-29T06:07:44.999Z,55.00
2022-11-29T06:10:16.403Z,55.00
2022-11-29T06:12:45.470Z,55.10
2022-11-29T06:15:37.325Z,55.20
2022-11-29T06:18:29.046Z,55.10
2022-11-29T06:21:11.203Z,55.10
2022-11-29T06:23:49.845Z,55.10
2022-11-29T06:26:34.936Z,55.00
2022-11-29T06:29:17.017Z,55.20
2022-11-29T06:31:47.981Z,55.10
2022-11-29T06:34:30.531Z,55.10
2022-11-29T06:37:05.185Z,55.20
2022-11-29T06:39:35.727Z,55.20
2022-11-29T06:42:03.826Z,55.10
2022-11-29T06:44:31.197Z,55.20
2022-11-29T06:47:04.024Z,55.10
2022-11-29T06:49:34.501Z,55.10
2022-11-29T06:52:13.820Z,55.30
2022-11-29T06:54:56.986Z,55.10
2022-11-29T06:57:33.160Z,55.10
2022-11-29T07:00:05.422Z,55.20
2022-11-29T07:02:59.490Z,55.00
2022-11-29T07:05:29.780Z,55.20
2022-11-29T07:08:03.134Z,55.30
2022-11-29T07:10:33.226Z,55.20
2022-11-29T07:13:00.580Z,55.20
2022-11-29T07:15:43.768Z,55.20
2022-11-29T07:18:19.627Z,55.20
2022-11-29T07:20:58.717Z,55.40
2022-11-29T07:23:35.763Z,55.30
2022-11-29T07:26:16.734Z,55.30
2022-11-29T07:28:50.706Z,55.20
2022-11-29T07:31:26.102Z,55.20
2022-11-29T07:34:00.995Z,55.10
2022-11-29T07:36:38.878Z,55.10
2022-11-29T07:39:18.160Z,55.10
2022-11-29T07:41:53.300Z,55.10
2022-11-29T07:44:26.164Z,55.10
2022-11-29T07:46:53.140Z,55.80
2022-11-29T07:49:20.229Z,55.30
2022-11-29T07:51:47.349Z,55.40
2022-11-29T07:54:18.632Z,55.30
2022-11-29T07:56:45.473Z,55.30
2022-11-29T07:59:12.378Z,55.20
2022-11-29T08:01:40.008Z,55.20
2022-11-29T08:04:07.786Z,55.10
2022-11-29T08:06:35.034Z,55.10
2022-11-29T08:09:02.140Z,55.00
2022-11-29T08:11:30.390Z,55.10
2022-11-29T08:13:57.570Z,55.10
2022-11-29T08:16:24.518Z,55.20
2022-11-29T08:18:52.135Z,55.30
2022-11-29T08:21:18.937Z,55.30
2022-11-29T08:23:45.737Z,55.40
2022-11-29T08:26:12.688Z,55.70
2022-11-29T08:28:40.765Z,55.50
2022-11-29T08:31:12.822Z,55.40
2022-11-29T08:33:42.756Z,55.50
2022-11-29T08:36:11.813Z,55.40
2022-11-29T08:38:38.601Z,55.40
2022-11-29T08:41:07.362Z,55.40
2022-11-29T08:43:34.890Z,56.10
2022-11-29T08:46:03.458Z,55.70
2022-11-29T08:48:30.234Z,55.50
2022-11-29T08:50:57.184Z,55.50
2022-11-29T08:53:24.692Z,55.50
2022-11-29T08:55:51.466Z,55.60
2022-11-29T08:58:18.216Z,55.50
2022-11-29T09:00:45.320Z,55.50
2022-11-29T09:03:13.525Z,55.50
2022-11-29T09:05:40.312Z,55.70
2022-11-29T09:08:07.132Z,55.50
2022-11-29T09:10:33.927Z,55.60
2022-11-29T09:13:00.678Z,55.70
2022-11-29T09:15:27.451Z,55.60
2022-11-29T09:17:54.145Z,55.60
2022-11-29T09:20:22.320Z,55.60
2022-11-29T09:22:49.211Z,55.80
2022-11-29T09:25:15.926Z,55.60
2022-11-29T09:27:42.683Z,55.70
2022-11-29T09:30:10.500Z,55.70
2022-11-29T09:32:37.269Z,56.40
2022-11-29T09:35:04.367Z,55.70
2022-11-29T09:37:32.451Z,55.70
2022-11-29T09:39:59.187Z,55.70
2022-11-29T09:42:37.960Z,55.80
2022-11-29T09:45:09.201Z,55.70
2022-11-29T09:48:04.122Z,55.60
2022-11-29T09:50:34.146Z,55.60
2022-11-29T09:53:17.293Z,55.90
2022-11-29T09:55:58.454Z,55.80
2022-11-29T09:58:28.427Z,55.80
2022-11-29T10:01:00.450Z,56.00
2022-11-29T10:03:31.973Z,56.00
2022-11-29T10:06:02.888Z,56.10
2022-11-29T10:08:36.386Z,56.00
2022-11-29T10:11:15.763Z,56.10
2022-11-29T10:13:47.535Z,56.00
2022-11-29T10:16:18.740Z,56.20
2022-11-29T10:18:51.174Z,56.10
2022-11-29T10:21:22.535Z,55.90
2022-11-29T10:23:53.995Z,55.90
2022-11-29T10:26:20.784Z,55.90
2022-11-29T10:28:47.741Z,55.60
2022-11-29T10:31:20.413Z,55.80
2022-11-29T10:33:48.558Z,55.80
2022-11-29T10:36:25.006Z,55.80
2022-11-29T10:38:57.524Z,55.80
2022-11-29T10:41:24.710Z,56.00
2022-11-29T10:43:54.670Z,56.20
2022-11-29T10:46:29.521Z,56.00
2022-11-29T10:48:57.698Z,56.00
2022-11-29T10:51:24.748Z,56.00
2022-11-29T10:53:54.301Z,56.10
2022-11-29T10:56:24.067Z,56.10
2022-11-29T10:58:56.647Z,56.20
2022-11-29T11:01:24.812Z,55.90
2022-11-29T11:03:53.541Z,55.90
2022-11-29T11:06:22.397Z,56.10
2022-11-29T11:08:54.351Z,56.00
2022-11-29T11:11:28.068Z,56.10
2022-11-29T11:13:59.415Z,56.20
2022-11-29T11:16:26.248Z,56.30
2022-11-29T11:18:53.336Z,56.60
2022-11-29T11:21:23.104Z,56.30
2022-11-29T11:23:59.026Z,56.30
2022-11-29T11:26:26.538Z,56.40
2022-11-29T11:28:57.320Z,56.10
2022-11-29T11:31:31.395Z,56.30
2022-11-29T11:34:23.940Z,56.40
2022-11-29T11:36:50.724Z,56.60
2022-11-29T11:39:21.933Z,57.00
2022-11-29T11:41:50.716Z,56.70
2022-11-29T11:44:52.578Z,56.70
2022-11-29T11:47:21.900Z,56.80
2022-11-29T11:49:53.109Z,56.80
2022-11-29T11:52:23.668Z,57.00
2022-11-29T11:54:54.612Z,57.00
2022-11-29T11:57:22.890Z,56.90
2022-11-29T11:59:50.958Z,56.80
2022-11-29T12:02:37.146Z,56.80
2022-11-29T12:05:10.264Z,56.70
2022-11-29T12:08:07.388Z,56.80
2022-11-29T12:10:33.958Z,56.90
2022-11-29T12:13:01.911Z,56.90
2022-11-29T12:15:32.770Z,56.90
2022-11-29T12:18:03.972Z,57.10
2022-11-29T12:20:36.930Z,56.90
2022-11-29T12:23:18.788Z,57.00
2022-11-29T12:25:53.331Z,57.00
2022-11-29T12:28:22.014Z,56.90
2022-11-29T12:30:56.290Z,56.80
2022-11-29T12:33:35.066Z,56.00
2022-11-29T12:36:16.529Z,57.00
2022-11-29T12:39:02.385Z,56.90
2022-11-29T12:41:40.458Z,56.90
2022-11-29T12:44:19.996Z,57.00
2022-11-29T12:47:02.122Z,56.90
2022-11-29T12:49:48.285Z,56.10
2022-11-29T12:52:26.966Z,56.80
2022-11-29T12:55:04.100Z,56.90
2022-11-29T12:57:43.535Z,56.90
2022-11-29T13:00:12.815Z,56.90
2022-11-29T13:02:55.938Z,57.00
2022-11-29T13:05:42.272Z,56.90
2022-11-29T13:08:24.736Z,56.70
2022-11-29T13:11:05.126Z,56.70
2022-11-29T13:13:39.431Z,57.00
2022-11-29T13:16:21.306Z,56.80
2022-11-29T13:18:56.651Z,55.80
2022-11-29T13:21:31.771Z,56.70
2022-11-29T13:24:08.720Z,56.70
2022-11-29T13:26:37.645Z,55.80
2022-11-29T13:29:07.380Z,55.80
2022-11-29T13:31:36.524Z,56.50
2022-11-29T13:34:07.461Z,55.60
2022-11-29T13:36:45.596Z,56.30
2022-11-29T13:39:24.032Z,55.60
2022-11-29T13:41:59.338Z,56.50
2022-11-29T13:44:35.610Z,55.70
2022-11-29T13:47:06.700Z,55.60
2022-11-29T13:49:55.668Z,55.60
2022-11-29T13:52:31.030Z,55.60
2022-11-29T13:55:17.537Z,55.40
2022-11-29T13:58:14.944Z,55.50
2022-11-29T14:00:48.415Z,56.30
2022-11-29T14:03:29.914Z,56.30
2022-11-29T14:06:10.840Z,56.20
2022-11-29T14:09:16.605Z,56.20
2022-11-29T14:11:31.810Z,56.30
2022-11-29T14:14:03.412Z,56.30
2022-11-29T14:16:36.117Z,55.60
2022-11-29T14:19:19.602Z,56.20
2022-11-29T14:22:29.109Z,56.40
2022-11-29T14:25:01.441Z,56.20
2022-11-29T14:27:54.677Z,56.30
2022-11-29T14:30:34.911Z,55.40
2022-11-29T14:33:10.750Z,56.40
2022-11-29T14:35:43.455Z,56.50
2022-11-29T14:38:15.846Z,56.50
2022-11-29T14:40:48.464Z,56.50
2022-11-29T14:43:20.527Z,56.50
2022-11-29T14:45:47.626Z,56.40
2022-11-29T14:48:27.089Z,56.40
2022-11-29T14:51:07.928Z,55.70
2022-11-29T14:53:36.637Z,56.40
2022-11-29T14:56:35.115Z,55.60
2022-11-29T14:59:35.317Z,56.40
2022-11-29T15:02:06.396Z,56.40
2022-11-29T15:04:36.484Z,56.40
2022-11-29T15:07:04.309Z,57.20
2022-11-29T15:09:33.572Z,56.50
2022-11-29T15:12:07.704Z,56.50
2022-11-29T15:14:43.731Z,56.50
2022-11-29T15:17:21.933Z,56.40
2022-11-29T15:20:02.297Z,56.40
2022-11-29T15:22:36.222Z,56.30
2022-11-29T15:25:09.752Z,56.30
2022-11-29T15:27:40.165Z,56.30
2022-11-29T15:30:21.488Z,56.40
2022-11-29T15:32:49.290Z,56.50
2022-11-29T15:35:19.613Z,55.70
2022-11-29T15:37:48.140Z,56.50
2022-11-29T15:40:17.009Z,56.50
2022-11-29T15:42:46.928Z,56.40
2022-11-29T15:45:32.178Z,56.40
2022-11-29T15:48:22.236Z,56.40
2022-11-29T15:51:08.569Z,56.50
2022-11-29T15:53:39.737Z,56.50
2022-11-29T15:56:13.788Z,56.50
2022-11-29T15:58:41.036Z,56.60
2022-11-29T16:01:08.570Z,56.50
2022-11-29T16:03:40.901Z,56.60
2022-11-29T16:06:21.050Z,56.60
2022-11-29T16:08:49.752Z,56.60
2022-11-29T16:11:20.810Z,56.60
2022-11-29T16:14:13.199Z,56.70
2022-11-29T16:16:42.053Z,56.60
2022-11-29T16:19:16.398Z,56.60
2022-11-29T16:21:44.693Z,56.60
2022-11-29T16:24:13.284Z,56.60
2022-11-29T16:26:43.060Z,56.60
2022-11-29T16:29:20.720Z,56.60
2022-11-29T16:31:47.581Z,56.60
2022-11-29T16:34:23.877Z,56.50
2022-11-29T16:37:01.323Z,56.60
2022-11-29T16:39:28.849Z,56.70
2022-11-29T16:42:06.152Z,56.60
2022-11-29T16:44:59.938Z,56.60
2022-11-29T16:47:29.984Z,56.60
2022-11-29T16:50:21.085Z,56.60
2022-11-29T16:52:56.084Z,56.60
2022-11-29T16:55:24.222Z,56.60
2022-11-29T16:57:50.983Z,56.60
2022-11-29T17:00:30.193Z,56.60
2022-11-29T17:02:57.049Z,56.50
2022-11-29T17:05:23.879Z,56.50
2022-11-29T17:07:52.190Z,56.50
2022-11-29T17:10:22.403Z,56.50
2022-11-29T17:12:49.118Z,56.60
2022-11-29T17:15:16.344Z,56.40
2022-11-29T17:17:43.837Z,56.40
2022-11-29T17:20:11.852Z,56.30
2022-11-29T17:22:38.732Z,56.40
2022-11-29T17:25:07.829Z,56.40
2022-11-29T17:27:35.414Z,56.40
2022-11-29T17:30:02.247Z,56.50
2022-11-29T17:32:28.990Z,56.40
2022-11-29T17:34:55.782Z,56.50
2022-11-29T17:37:22.514Z,56.40
2022-11-29T17:39:49.244Z,56.40
2022-11-29T17:42:17.354Z,56.30
2022-11-29T17:44:44.097Z,56.50
2022-11-29T17:47:10.804Z,56.30
2022-11-29T17:49:37.615Z,56.40
2022-11-29T17:52:04.472Z,56.40
2022-11-29T17:54:31.194Z,56.40
2022-11-29T17:56:57.900Z,56.40
2022-11-29T17:59:26.149Z,56.50
2022-11-29T18:01:53.057Z,56.40
2022-11-29T18:04:19.888Z,56.30
2022-11-29T18:06:46.762Z,56.40
2022-11-29T18:09:13.488Z,56.60
2022-11-29T18:11:47.682Z,56.90
2022-11-29T18:14:17.494Z,56.80
2022-11-29T18:16:45.901Z,57.00
2022-11-29T18:19:14.628Z,57.10
2022-11-29T18:21:41.429Z,57.20
2022-11-29T18:24:08.465Z,57.40
2022-11-29T18:26:36.492Z,57.20
2022-11-29T18:29:04.445Z,57.00
2022-11-29T18:31:32.677Z,57.30
2022-11-29T18:34:02.676Z,57.40
2022-11-29T18:36:30.986Z,57.40
2022-11-29T18:38:58.936Z,57.30
2022-11-29T18:41:27.864Z,57.30
2022-11-29T18:43:59.327Z,57.30
2022-11-29T18:46:27.262Z,57.30
2022-11-29T18:48:54.033Z,56.90
2022-11-29T18:51:22.097Z,56.70
2022-11-29T18:53:48.901Z,56.70
2022-11-29T18:56:18.130Z,56.60
2022-11-29T18:58:46.356Z,56.70
2022-11-29T19:01:15.308Z,56.70
2022-11-29T19:03:43.862Z,56.70
2022-11-29T19:06:12.105Z,56.80
2022-11-29T19:08:40.738Z,57.00
2022-11-29T19:11:08.476Z,57.40
2022-11-29T19:13:35.411Z,57.40
2022-11-29T19:16:03.980Z,57.60
2022-11-29T19:18:30.710Z,57.60
2022-11-29T19:21:04.187Z,57.70
2022-11-29T19:23:31.090Z,57.70
2022-11-29T19:26:03.278Z,57.80
2022-11-29T19:28:30.156Z,57.70
2022-11-29T19:30:57.046Z,57.70
2022-11-29T19:33:24.329Z,57.60
2022-11-29T19:35:51.151Z,57.70
2022-11-29T19:38:17.967Z,57.50
2022-11-29T19:40:44.788Z,57.20
2022-11-29T19:43:12.882Z,57.20
2022-11-29T19:45:39.698Z,57.50
2022-11-29T19:48:06.707Z,57.60
2022-11-29T19:50:33.462Z,57.70
2022-11-29T19:53:00.234Z,57.50
2022-11-29T19:55:26.988Z,57.30
2022-11-29T19:57:55.350Z,56.60
2022-11-29T20:00:23.708Z,57.20
2022-11-29T20:02:50.535Z,57.00
2022-11-29T20:05:17.448Z,57.00
2022-11-29T20:07:44.211Z,56.80
2022-11-29T20:10:11.736Z,56.80
2022-11-29T20:12:38.563Z,56.80
2022-11-29T20:15:06.796Z,56.70
2022-11-29T20:17:34.950Z,56.70
2022-11-29T20:20:01.848Z,56.80
2022-11-29T20:22:28.619Z,56.80
2022-11-29T20:24:55.397Z,56.70
2022-11-29T20:27:22.168Z,56.60
2022-11-29T20:29:49.164Z,56.80
2022-11-29T20:32:18.850Z,56.80
2022-11-29T20:34:47.963Z,56.70
2022-11-29T20:37:38.249Z,56.60
2022-11-29T20:40:09.177Z,56.70
2022-11-29T20:42:57.950Z,56.80
2022-11-29T20:45:25.333Z,57.20
2022-11-29T20:47:56.393Z,57.00
2022-11-29T20:50:27.079Z,57.10
2022-11-29T20:53:07.027Z,56.90
2022-11-29T20:55:34.049Z,57.00
2022-11-29T20:58:00.816Z,56.90
2022-11-29T21:00:27.560Z,56.90
2022-11-29T21:02:54.316Z,56.90
2022-11-29T21:05:21.175Z,56.90
2022-11-29T21:07:49.364Z,56.80
2022-11-29T21:10:16.285Z,56.80
2022-11-29T21:12:43.998Z,56.80
2022-11-29T21:15:12.754Z,56.80
2022-11-29T21:17:40.217Z,56.70
2022-11-29T21:20:16.001Z,56.80
2022-11-29T21:22:49.178Z,56.80
2022-11-29T21:25:25.327Z,56.80
2022-11-29T21:27:54.455Z,56.80
2022-11-29T21:30:23.114Z,56.70
2022-11-29T21:32:50.634Z,56.60
2022-11-29T21:35:17.403Z,56.70
2022-11-29T21:37:44.815Z,56.70
2022-11-29T21:40:14.098Z,56.60
2022-11-29T21:42:42.361Z,56.70
2022-11-29T21:45:15.190Z,56.80
2022-11-29T21:47:43.025Z,56.80
2022-11-29T21:50:10.945Z,56.70
2022-11-29T21:52:37.797Z,56.80
2022-11-29T21:55:05.478Z,56.80
2022-11-29T21:57:32.352Z,56.80
2022-11-29T22:00:00.465Z,56.70
2022-11-29T22:02:27.291Z,56.80
2022-11-29T22:04:54.123Z,56.60
2022-11-29T22:07:20.891Z,56.70
2022-11-29T22:09:47.662Z,56.80
2022-11-29T22:12:32.976Z,56.80
2022-11-29T22:15:02.120Z,56.90
2022-11-29T22:17:28.934Z,57.00
2022-11-29T22:19:55.661Z,57.00
2022-11-29T22:22:22.575Z,56.90
2022-11-29T22:24:49.596Z,56.90
2022-11-29T22:27:16.632Z,56.90
2022-11-29T22:29:43.384Z,56.10
2022-11-29T22:32:11.500Z,57.10
2022-11-29T22:34:38.242Z,57.00
2022-11-29T22:37:05.019Z,57.00
2022-11-29T22:39:31.900Z,56.80
2022-11-29T22:41:58.677Z,56.80
2022-11-29T22:44:25.485Z,56.70
2022-11-29T22:46:52.350Z,56.50
2022-11-29T22:49:20.639Z,56.60
2022-11-29T22:51:47.634Z,57.00
2022-11-29T22:54:14.368Z,57.00
2022-11-29T22:56:42.363Z,56.10
2022-11-29T22:59:09.596Z,56.20
2022-11-29T23:01:37.930Z,57.10
2022-11-29T23:04:06.898Z,57.10
2022-11-29T23:06:37.058Z,57.20
2022-11-29T23:09:06.080Z,57.30
2022-11-29T23:11:33.282Z,57.40
2022-11-29T23:14:00.034Z,56.60
2022-11-29T23:16:28.937Z,57.40
2022-11-29T23:18:57.371Z,57.40
2022-11-29T23:21:25.501Z,56.40
2022-11-29T23:23:56.668Z,57.20
2022-11-29T23:26:25.890Z,56.30
2022-11-29T23:28:52.866Z,57.00
2022-11-29T23:31:20.512Z,57.00
2022-11-29T23:33:47.641Z,56.20
2022-11-29T23:36:14.883Z,57.00
2022-11-29T23:38:41.971Z,56.90
2022-11-29T23:41:10.963Z,56.90
2022-11-29T23:43:39.116Z,56.10
2022-11-29T23:46:06.808Z,56.90
2022-11-29T23:48:33.681Z,56.90
2022-11-29T23:51:00.610Z,56.80
2022-11-29T23:53:27.606Z,56.80
2022-11-29T23:55:58.714Z,56.70
2022-11-29T23:58:27.934Z,56.00
